EDD weather

Erldunda Airport
Northern Territory, Australia

Public forecast

Using degrees Celsius for public forecast. Weather courtesy of forecast.io.

METAR (pilot weather report)

Closest report is Alice Springs Airport, 91.2 nm (168.8 km) NNE. Retrieved 2019/03/27 00:00 UTC (16 minutes ago):

YBAS 270000Z AUTO 11012KT 9999 // ////// 22/04 Q1020 RF00.0/000.0

TAF (pilot weather forecast)

Forecast is more than 12 hours old.

Closest forecast is Alice Springs Airport, 91.2 nm (168.8 km) NNE. Retrieved 2019/03/26 00:00 UTC (1 day ago):

TAF YBAS 262311Z 2700/2724 14014KT CAVOK FM271100 12008KT CAVOK FM271800 32004KT CAVOK